createdAt,value
2023-01-11T00:00:56.553Z,23.58
2023-01-11T00:02:17.426Z,26.45
2023-01-11T00:03:38.360Z,18.75
2023-01-11T00:04:59.260Z,25.83
2023-01-11T00:06:19.829Z,24.38
2023-01-11T00:07:40.276Z,31.17
2023-01-11T00:09:00.774Z,25.58
2023-01-11T00:10:22.079Z,21.73
2023-01-11T00:13:03.897Z,23.92
2023-01-11T00:14:24.251Z,35.45
2023-01-11T00:15:44.891Z,19.75
2023-01-11T00:17:06.881Z,25.27
2023-01-11T00:18:27.554Z,24.10
2023-01-11T00:19:47.844Z,17.15
2023-01-11T00:21:09.364Z,24.27
2023-01-11T00:22:29.948Z,24.73
2023-01-11T00:23:50.756Z,20.73
2023-01-11T00:25:11.408Z,26.27
2023-01-11T00:26:32.031Z,19.73
2023-01-11T00:27:53.366Z,19.35
2023-01-11T00:30:34.266Z,19.77
2023-01-11T00:31:54.447Z,23.13
2023-01-11T00:33:16.480Z,22.17
2023-01-11T00:34:37.182Z,20.50
2023-01-11T00:35:57.642Z,21.83
2023-01-11T00:37:18.222Z,23.75
2023-01-11T00:38:38.742Z,18.70
2023-01-11T00:39:59.448Z,17.23
2023-01-11T00:41:21.819Z,17.27
2023-01-11T00:42:42.215Z,22.33
2023-01-11T00:44:03.597Z,28.17
2023-01-11T00:45:24.319Z,25.80
2023-01-11T00:46:44.984Z,21.27
2023-01-11T00:48:06.421Z,19.15
2023-01-11T00:49:28.453Z,16.48
2023-01-11T00:50:49.359Z,17.30
2023-01-11T00:52:10.470Z,18.80
2023-01-11T00:53:31.067Z,18.75
2023-01-11T00:54:51.898Z,21.02
2023-01-11T00:56:12.487Z,16.92
2023-01-11T00:57:33.231Z,19.73
2023-01-11T00:58:53.614Z,17.73
2023-01-11T01:00:14.266Z,13.23
2023-01-11T01:01:34.617Z,24.30
2023-01-11T01:02:55.431Z,20.42
2023-01-11T01:04:16.111Z,17.25
2023-01-11T01:05:39.236Z,23.05
2023-01-11T01:06:59.679Z,21.08
2023-01-11T01:08:20.319Z,19.83
2023-01-11T01:09:40.982Z,22.23
2023-01-11T01:11:01.724Z,19.83
2023-01-11T01:12:22.528Z,15.05
2023-01-11T01:13:43.387Z,19.77
2023-01-11T01:15:04.490Z,23.00
2023-01-11T01:16:25.024Z,27.25
2023-01-11T01:17:46.041Z,22.15
2023-01-11T01:19:06.414Z,17.23
2023-01-11T01:20:27.219Z,20.70
2023-01-11T01:21:49.413Z,22.05
2023-01-11T01:23:09.740Z,21.75
2023-01-11T01:24:30.472Z,20.53
2023-01-11T01:25:51.062Z,23.00
2023-01-11T01:27:11.901Z,17.40
2023-01-11T01:28:32.869Z,25.83
2023-01-11T01:29:53.949Z,18.30
2023-01-11T01:31:14.721Z,18.90
2023-01-11T01:32:35.313Z,12.67
2023-01-11T01:33:55.846Z,16.92
2023-01-11T01:35:16.647Z,21.92
2023-01-11T01:36:37.437Z,16.67
2023-01-11T01:37:59.403Z,27.60
2023-01-11T01:39:19.666Z,20.45
2023-01-11T01:40:41.828Z,17.98
2023-01-11T01:42:02.585Z,12.73
2023-01-11T01:43:24.230Z,15.48
2023-01-11T01:44:56.961Z,16.05
2023-01-11T01:46:18.318Z,12.85
2023-01-11T01:47:46.275Z,19.80
2023-01-11T01:49:11.764Z,14.02
2023-01-11T01:50:34.592Z,16.67
2023-01-11T01:51:56.972Z,19.45
2023-01-11T01:53:23.197Z,16.35
2023-01-11T01:54:47.011Z,15.30
2023-01-11T01:56:11.312Z,18.63
2023-01-11T01:57:33.214Z,11.65
2023-01-11T02:00:15.393Z,19.75
2023-01-11T02:01:35.728Z,14.23
2023-01-11T02:02:57.836Z,11.63
2023-01-11T02:04:22.277Z,11.52
2023-01-11T02:05:42.702Z,10.60
2023-01-11T02:07:05.460Z,15.88
2023-01-11T02:08:33.193Z,11.40
2023-01-11T02:09:58.698Z,8.68
2023-01-11T02:11:19.637Z,9.63
2023-01-11T02:12:43.342Z,14.63
2023-01-11T02:14:06.995Z,25.88
2023-01-11T02:15:27.771Z,14.18
2023-01-11T02:16:48.468Z,12.03
2023-01-11T02:18:10.474Z,9.27
2023-01-11T02:19:46.747Z,12.45
2023-01-11T02:21:21.183Z,17.50
2023-01-11T02:23:20.354Z,10.80
2023-01-11T02:25:22.578Z,18.75
2023-01-11T02:28:33.503Z,12.70
2023-01-11T02:30:02.669Z,12.80
2023-01-11T02:31:30.615Z,12.65
2023-01-11T02:32:57.849Z,9.95
2023-01-11T02:34:27.481Z,17.67
2023-01-11T02:36:00.091Z,16.17
2023-01-11T02:37:28.487Z,15.05
2023-01-11T02:38:55.857Z,15.18
2023-01-11T02:40:20.479Z,17.48
2023-01-11T02:41:45.409Z,19.30
2023-01-11T02:43:09.584Z,13.82
2023-01-11T02:44:36.912Z,17.52
2023-01-11T02:46:02.058Z,11.65
2023-01-11T02:47:28.425Z,15.23
2023-01-11T02:48:53.713Z,12.73
2023-01-11T02:50:19.828Z,12.68
2023-01-11T02:51:42.782Z,13.80
2023-01-11T02:53:07.411Z,16.23
2023-01-11T02:54:28.449Z,13.57
2023-01-11T02:57:11.480Z,20.98
2023-01-11T02:58:35.204Z,18.65
2023-01-11T02:59:58.583Z,16.60
2023-01-11T03:01:19.765Z,17.52
2023-01-11T03:02:40.370Z,14.85
2023-01-11T03:04:00.884Z,18.90
2023-01-11T03:05:22.224Z,12.32
2023-01-11T03:06:43.038Z,20.70
2023-01-11T03:08:10.378Z,20.73
2023-01-11T03:09:38.482Z,20.25
2023-01-11T03:11:03.726Z,15.55
2023-01-11T03:12:34.147Z,29.00
2023-01-11T03:14:02.281Z,23.92
2023-01-11T03:15:45.732Z,18.45
2023-01-11T03:17:12.915Z,25.45
2023-01-11T03:18:42.450Z,27.08
2023-01-11T03:20:09.709Z,25.60
2023-01-11T03:21:42.850Z,28.95
2023-01-11T03:23:10.214Z,27.92
2023-01-11T03:24:33.653Z,26.80
2023-01-11T03:26:00.247Z,28.45
2023-01-11T03:27:25.911Z,19.63
2023-01-11T03:28:52.872Z,22.45
2023-01-11T03:30:17.429Z,25.90
2023-01-11T03:31:43.087Z,32.08
2023-01-11T03:33:06.145Z,35.53
2023-01-11T03:34:31.394Z,23.77
2023-01-11T03:35:54.766Z,33.85
2023-01-11T03:37:19.730Z,26.05
2023-01-11T03:38:44.530Z,39.55
2023-01-11T03:40:09.447Z,33.97
2023-01-11T03:41:32.551Z,30.38
2023-01-11T03:42:56.770Z,41.15
2023-01-11T03:44:18.388Z,29.02
2023-01-11T03:45:46.182Z,42.88
2023-01-11T03:47:09.475Z,26.13
2023-01-11T03:48:33.111Z,28.65
2023-01-11T03:49:56.166Z,39.58
2023-01-11T03:51:19.137Z,34.80
2023-01-11T03:52:41.263Z,38.85
2023-01-11T03:54:04.763Z,36.50
2023-01-11T03:55:26.679Z,30.83
2023-01-11T03:56:52.333Z,38.78
2023-01-11T03:58:12.924Z,47.67
2023-01-11T03:59:34.069Z,34.60
2023-01-11T04:00:55.355Z,46.65
2023-01-11T04:02:18.909Z,37.25
2023-01-11T04:03:39.598Z,48.42
2023-01-11T04:05:00.530Z,33.05
2023-01-11T04:06:21.238Z,47.67
2023-01-11T04:07:41.832Z,41.38
2023-01-11T04:09:02.590Z,44.17
2023-01-11T04:10:23.018Z,50.22
2023-01-11T04:11:43.635Z,48.23
2023-01-11T04:13:04.609Z,48.60
2023-01-11T04:14:25.234Z,42.43
2023-01-11T04:15:46.505Z,54.03
2023-01-11T04:17:07.213Z,46.80
2023-01-11T04:18:29.204Z,37.07
2023-01-11T04:19:49.983Z,46.42
2023-01-11T04:21:10.632Z,47.17
2023-01-11T04:22:31.625Z,42.03
2023-01-11T04:23:52.094Z,37.83
2023-01-11T04:25:12.516Z,37.88
2023-01-11T04:26:33.322Z,51.95
2023-01-11T04:27:54.117Z,36.30
2023-01-11T04:29:14.704Z,50.87
2023-01-11T04:30:34.967Z,52.15
2023-01-11T04:31:55.655Z,42.60
2023-01-11T04:33:16.136Z,33.00
2023-01-11T04:34:38.086Z,40.00
2023-01-11T04:35:58.732Z,43.22
2023-01-11T04:37:19.462Z,45.33
2023-01-11T04:38:40.268Z,44.03
2023-01-11T04:40:00.910Z,51.33
2023-01-11T04:41:23.456Z,44.20
2023-01-11T04:42:46.434Z,56.80
2023-01-11T04:44:06.973Z,42.90
2023-01-11T04:45:27.881Z,44.65
2023-01-11T04:46:48.567Z,48.97
2023-01-11T04:48:09.055Z,37.63
2023-01-11T04:49:29.612Z,41.67
2023-01-11T04:50:51.595Z,43.03
2023-01-11T04:52:13.442Z,35.42
2023-01-11T04:53:34.205Z,46.60
2023-01-11T04:54:54.698Z,40.70
2023-01-11T04:56:15.564Z,40.50
2023-01-11T04:58:56.730Z,45.38
2023-01-11T05:00:18.179Z,50.38
2023-01-11T05:01:38.605Z,40.90
2023-01-11T05:02:59.289Z,37.87
2023-01-11T05:04:20.169Z,37.88
2023-01-11T05:05:40.771Z,38.38
2023-01-11T05:07:03.089Z,44.10
2023-01-11T05:08:23.872Z,37.97
2023-01-11T05:09:44.116Z,38.38
2023-01-11T05:11:06.725Z,36.57
2023-01-11T05:12:27.512Z,39.40
2023-01-11T05:13:48.041Z,37.17
2023-01-11T05:15:09.765Z,34.45
2023-01-11T05:17:50.994Z,40.78
2023-01-11T05:19:12.104Z,45.78
2023-01-11T05:20:32.547Z,33.60
2023-01-11T05:21:53.183Z,43.28
2023-01-11T05:23:15.175Z,38.87
2023-01-11T05:24:35.797Z,37.25
2023-01-11T05:25:56.048Z,49.67
2023-01-11T05:27:16.897Z,36.22
2023-01-11T05:28:37.901Z,30.83
2023-01-11T05:29:58.380Z,37.20
2023-01-11T05:31:19.439Z,34.97
2023-01-11T05:32:39.896Z,42.58
2023-01-11T05:34:00.555Z,37.80
2023-01-11T05:35:21.207Z,30.10
2023-01-11T05:36:42.213Z,29.07
2023-01-11T05:38:02.770Z,43.85
2023-01-11T05:39:24.860Z,31.40
2023-01-11T05:40:45.099Z,34.33
2023-01-11T05:42:05.800Z,38.28
2023-01-11T05:43:27.056Z,32.92
2023-01-11T05:44:47.881Z,46.85
2023-01-11T05:46:08.552Z,35.80
2023-01-11T05:47:29.076Z,42.83
2023-01-11T05:48:50.013Z,43.08
2023-01-11T05:50:10.842Z,51.47
2023-01-11T05:51:32.109Z,33.85
2023-01-11T05:52:52.707Z,39.90
2023-01-11T05:54:14.386Z,38.47
2023-01-11T05:55:36.315Z,37.53
2023-01-11T05:56:57.311Z,47.53
2023-01-11T05:58:18.044Z,40.88
2023-01-11T05:59:38.475Z,36.00
2023-01-11T06:00:58.967Z,45.70
2023-01-11T06:02:19.464Z,37.47
2023-01-11T06:03:40.166Z,45.78
2023-01-11T06:05:01.132Z,42.03
2023-01-11T06:06:22.046Z,31.55
2023-01-11T06:07:42.776Z,43.55
2023-01-11T06:09:03.483Z,34.38
2023-01-11T06:10:24.177Z,37.70
2023-01-11T06:11:46.173Z,44.80
2023-01-11T06:13:07.390Z,37.50
2023-01-11T06:14:27.849Z,36.53
2023-01-11T06:15:48.517Z,37.80
2023-01-11T06:17:09.216Z,37.97
2023-01-11T06:18:30.900Z,34.15
2023-01-11T06:19:51.259Z,40.03
2023-01-11T06:21:12.630Z,43.70
2023-01-11T06:22:33.088Z,43.15
2023-01-11T06:23:53.922Z,33.70
2023-01-11T06:25:14.606Z,43.53
2023-01-11T06:26:35.091Z,27.98
2023-01-11T06:27:57.336Z,33.65
2023-01-11T06:29:18.126Z,41.85
2023-01-11T06:30:39.130Z,41.42
2023-01-11T06:31:59.796Z,51.17
2023-01-11T06:33:20.711Z,40.92
2023-01-11T06:34:41.006Z,37.33
2023-01-11T06:36:04.409Z,45.75
2023-01-11T06:37:25.178Z,36.50
2023-01-11T06:38:45.542Z,42.97
2023-01-11T06:40:06.651Z,41.70
2023-01-11T06:41:27.287Z,30.83
2023-01-11T06:42:47.693Z,31.20
2023-01-11T06:44:09.616Z,41.67
2023-01-11T06:45:31.190Z,37.20
2023-01-11T06:46:51.671Z,40.78
2023-01-11T06:48:12.191Z,44.40
2023-01-11T06:49:33.072Z,35.13
2023-01-11T06:50:55.520Z,31.60
2023-01-11T06:52:16.155Z,34.20
2023-01-11T06:53:36.877Z,41.88
2023-01-11T06:54:57.365Z,39.78
2023-01-11T06:56:18.370Z,41.85
2023-01-11T06:57:38.783Z,41.25
2023-01-11T06:58:59.480Z,47.13
2023-01-11T07:00:22.467Z,38.92
2023-01-11T07:01:43.203Z,39.15
2023-01-11T07:03:04.354Z,34.53
2023-01-11T07:04:24.716Z,39.25
2023-01-11T07:05:45.531Z,34.80
2023-01-11T07:07:06.179Z,34.85
2023-01-11T07:08:27.064Z,45.10
2023-01-11T07:09:47.804Z,42.08
2023-01-11T07:11:08.903Z,53.13
2023-01-11T07:12:29.362Z,31.48
2023-01-11T07:13:49.739Z,31.50
2023-01-11T07:15:11.275Z,41.70
2023-01-11T07:16:33.226Z,50.75
2023-01-11T07:17:54.613Z,38.55
2023-01-11T07:20:36.150Z,50.47
2023-01-11T07:21:56.940Z,41.90
2023-01-11T07:23:17.319Z,50.53
2023-01-11T07:24:37.562Z,41.97
2023-01-11T07:25:57.829Z,36.92
2023-01-11T07:27:18.632Z,40.77
2023-01-11T07:28:39.405Z,50.35
2023-01-11T07:30:00.504Z,38.35
2023-01-11T07:31:21.298Z,43.35
2023-01-11T07:32:43.110Z,49.83
2023-01-11T07:34:04.228Z,39.58
2023-01-11T07:35:25.843Z,42.92
2023-01-11T07:36:46.799Z,42.67
2023-01-11T07:38:07.573Z,38.88
2023-01-11T07:39:42.223Z,45.70
2023-01-11T07:41:03.460Z,41.33
2023-01-11T07:42:24.218Z,37.85
2023-01-11T07:43:44.882Z,42.13
2023-01-11T07:45:06.392Z,49.75
2023-01-11T07:46:26.823Z,37.80
2023-01-11T07:47:50.988Z,41.78
2023-01-11T07:49:11.671Z,47.13
2023-01-11T07:50:32.344Z,54.10
2023-01-11T07:51:53.089Z,42.80
2023-01-11T07:53:13.999Z,43.30
2023-01-11T07:54:34.361Z,43.88
2023-01-11T07:55:55.335Z,44.60
2023-01-11T07:57:15.721Z,37.77
2023-01-11T07:58:36.429Z,37.45
2023-01-11T07:59:57.108Z,43.58
2023-01-11T08:01:17.626Z,53.80
2023-01-11T08:02:38.318Z,40.50
2023-01-11T08:04:00.132Z,49.58
2023-01-11T08:05:21.416Z,48.40
2023-01-11T08:06:42.291Z,39.72
2023-01-11T08:08:02.808Z,39.75
2023-01-11T08:09:23.411Z,46.60
2023-01-11T08:10:44.093Z,46.53
2023-01-11T08:12:05.123Z,39.63
2023-01-11T08:13:25.783Z,51.67
2023-01-11T08:14:46.349Z,41.13
2023-01-11T08:16:07.594Z,47.75
2023-01-11T08:17:27.991Z,36.85
2023-01-11T08:18:48.619Z,67.20
2023-01-11T08:20:11.037Z,46.08
2023-01-11T08:21:31.569Z,45.28
2023-01-11T08:22:53.871Z,43.00
2023-01-11T08:24:14.566Z,51.97
2023-01-11T08:25:35.219Z,51.05
2023-01-11T08:26:55.886Z,48.97
2023-01-11T08:28:16.584Z,49.17
2023-01-11T08:29:37.322Z,51.07
2023-01-11T08:30:58.205Z,41.88
2023-01-11T08:32:19.029Z,49.17
2023-01-11T08:33:39.741Z,40.85
2023-01-11T08:35:00.235Z,41.20
2023-01-11T08:36:22.369Z,35.65
2023-01-11T08:37:43.519Z,43.33
2023-01-11T08:39:05.139Z,37.30
2023-01-11T08:40:25.747Z,32.78
2023-01-11T08:41:46.215Z,44.80
2023-01-11T08:43:07.182Z,34.38
2023-01-11T08:44:35.348Z,34.35
2023-01-11T08:45:58.430Z,38.47
2023-01-11T08:47:19.123Z,42.92
2023-01-11T08:48:39.710Z,43.47
2023-01-11T08:50:00.541Z,34.67
2023-01-11T08:51:22.558Z,32.65
2023-01-11T08:52:43.554Z,40.35
2023-01-11T08:54:04.300Z,47.77
2023-01-11T08:55:24.616Z,48.53
2023-01-11T08:56:45.421Z,35.20
2023-01-11T08:58:06.201Z,38.13
2023-01-11T08:59:26.940Z,55.90
2023-01-11T09:00:47.665Z,51.35
2023-01-11T09:02:10.114Z,40.88
2023-01-11T09:03:31.132Z,46.10
2023-01-11T09:04:51.637Z,47.93
2023-01-11T09:06:12.294Z,54.67
2023-01-11T09:07:34.079Z,41.88
2023-01-11T09:08:54.710Z,49.85
2023-01-11T09:10:16.033Z,45.10
2023-01-11T09:11:36.515Z,38.42
2023-01-11T09:12:57.707Z,54.28
2023-01-11T09:14:18.709Z,39.83
2023-01-11T09:15:39.188Z,46.72
2023-01-11T09:16:59.818Z,47.13
2023-01-11T09:18:20.516Z,40.00
2023-01-11T09:19:41.147Z,42.80
2023-01-11T09:21:01.876Z,32.47
2023-01-11T09:22:22.521Z,38.67
2023-01-11T09:23:44.451Z,38.85
2023-01-11T09:25:06.256Z,40.97
2023-01-11T09:26:26.781Z,42.50
2023-01-11T09:27:48.925Z,50.85
2023-01-11T09:29:09.314Z,44.85
2023-01-11T09:30:29.724Z,47.45
2023-01-11T09:31:50.656Z,48.58
2023-01-11T09:33:11.454Z,36.90
2023-01-11T09:34:32.170Z,52.03
2023-01-11T09:35:52.661Z,40.85
2023-01-11T09:37:13.187Z,49.30
2023-01-11T09:38:33.979Z,41.10
2023-01-11T09:39:56.273Z,39.67
2023-01-11T09:41:29.842Z,53.40
2023-01-11T09:42:51.423Z,32.50
2023-01-11T09:45:33.689Z,39.38
2023-01-11T09:47:10.472Z,39.78
2023-01-11T09:48:35.180Z,33.67
2023-01-11T09:49:57.156Z,42.63
2023-01-11T09:51:17.738Z,38.55
2023-01-11T09:52:41.281Z,44.50
2023-01-11T09:54:02.714Z,47.75
2023-01-11T09:55:32.057Z,47.30
2023-01-11T09:57:00.141Z,45.22
2023-01-11T09:58:45.494Z,55.45
2023-01-11T10:00:13.896Z,47.15
2023-01-11T10:01:37.950Z,43.08
2023-01-11T10:03:20.143Z,42.70
2023-01-11T10:04:50.011Z,39.58
2023-01-11T10:06:14.613Z,37.88
2023-01-11T10:07:47.806Z,35.38
2023-01-11T10:18:27.366Z,44.00
2023-01-11T10:18:29.331Z,47.28
2023-01-11T10:18:38.410Z,40.42
2023-01-11T10:20:13.739Z,46.15
2023-01-11T10:21:39.233Z,47.65
2023-01-11T10:23:04.044Z,32.80
2023-01-11T10:24:27.299Z,34.45
2023-01-11T10:25:48.320Z,34.78
2023-01-11T10:27:20.746Z,41.30
2023-01-11T10:28:50.963Z,43.00
2023-01-11T10:30:18.399Z,41.35
2023-01-11T10:31:38.879Z,35.58
2023-01-11T10:33:04.753Z,37.97
2023-01-11T10:34:26.678Z,33.95
2023-01-11T10:35:50.287Z,45.63
2023-01-11T10:37:13.009Z,44.50
2023-01-11T10:38:36.311Z,34.30
2023-01-11T10:40:02.737Z,45.95
2023-01-11T10:41:29.048Z,38.83
2023-01-11T10:42:56.874Z,42.50
2023-01-11T10:44:21.063Z,37.03
2023-01-11T10:45:43.822Z,39.72
2023-01-11T10:47:10.918Z,40.10
2023-01-11T10:48:34.738Z,42.88
2023-01-11T10:49:59.423Z,45.35
2023-01-11T10:51:23.211Z,39.03
2023-01-11T10:52:48.034Z,52.45
2023-01-11T10:54:12.216Z,50.45
2023-01-11T10:55:41.900Z,38.90
2023-01-11T10:57:10.763Z,34.40
2023-01-11T10:58:46.507Z,44.55
2023-01-11T11:00:25.309Z,47.50
2023-01-11T11:01:53.679Z,33.78
2023-01-11T11:03:43.808Z,41.72
2023-01-11T11:05:14.529Z,41.00
2023-01-11T11:06:39.632Z,44.40
2023-01-11T11:08:07.513Z,37.17
2023-01-11T11:09:34.305Z,34.38
2023-01-11T11:10:59.505Z,37.35
2023-01-11T11:12:23.405Z,39.65
2023-01-11T11:13:50.942Z,42.85
2023-01-11T11:15:15.415Z,33.03
2023-01-11T11:16:45.004Z,41.03
2023-01-11T11:18:06.582Z,45.13
2023-01-11T11:19:30.833Z,31.05
2023-01-11T11:20:51.573Z,34.28
2023-01-11T11:22:12.570Z,46.72
2023-01-11T11:23:33.265Z,31.07
2023-01-11T11:24:58.728Z,31.60
2023-01-11T11:26:19.700Z,38.08
2023-01-11T11:27:42.232Z,37.75
2023-01-11T11:29:07.788Z,28.60
2023-01-11T11:30:30.682Z,40.33
2023-01-11T11:31:51.899Z,43.80
2023-01-11T11:33:17.214Z,40.90
2023-01-11T11:34:38.160Z,35.67
2023-01-11T11:36:00.975Z,32.90
2023-01-11T11:37:24.583Z,34.25
2023-01-11T11:39:03.405Z,41.47
2023-01-11T11:40:29.833Z,48.10
2023-01-11T11:41:52.156Z,37.60
2023-01-11T11:43:19.873Z,30.20
2023-01-11T11:44:42.313Z,47.20
2023-01-11T11:46:04.112Z,35.55
2023-01-11T11:47:24.925Z,37.53
2023-01-11T11:49:06.104Z,31.08
2023-01-11T11:50:43.657Z,29.67
2023-01-11T11:52:06.212Z,31.92
2023-01-11T11:53:33.079Z,37.35
2023-01-11T11:54:57.053Z,31.13
2023-01-11T11:56:21.515Z,26.00
2023-01-11T11:57:43.509Z,34.38
2023-01-11T11:59:07.351Z,33.75
2023-01-11T12:00:30.684Z,44.67
2023-01-11T12:01:58.368Z,30.02
2023-01-11T12:03:20.621Z,37.90
2023-01-11T12:04:45.043Z,38.75
2023-01-11T12:06:06.050Z,45.45
2023-01-11T12:07:28.563Z,41.83
2023-01-11T12:08:49.640Z,40.55
2023-01-11T12:10:15.424Z,37.65
2023-01-11T12:11:39.659Z,38.50
2023-01-11T12:13:01.824Z,41.58
2023-01-11T12:14:26.063Z,36.60
2023-01-11T12:15:56.258Z,43.53
2023-01-11T12:17:22.766Z,33.95
2023-01-11T12:18:46.711Z,42.03
2023-01-11T12:20:29.551Z,33.28
2023-01-11T12:21:51.094Z,35.85
2023-01-11T12:23:17.956Z,38.95
2023-01-11T12:24:38.288Z,45.95
2023-01-11T12:26:21.834Z,28.90
2023-01-11T12:27:47.107Z,40.85
2023-01-11T12:29:28.586Z,27.65
2023-01-11T12:30:57.711Z,36.83
2023-01-11T12:32:48.951Z,41.78
2023-01-11T12:34:21.334Z,37.42
2023-01-11T12:35:51.949Z,33.05
2023-01-11T12:37:21.181Z,31.23
2023-01-11T12:38:53.240Z,34.00
2023-01-11T12:40:19.904Z,34.47
2023-01-11T12:42:13.238Z,40.63
2023-01-11T12:43:44.061Z,35.50
2023-01-11T12:45:13.776Z,48.92
2023-01-11T12:46:46.606Z,36.25
2023-01-11T12:48:43.399Z,36.78
2023-01-11T12:50:09.361Z,30.75
2023-01-11T12:51:40.965Z,42.97
2023-01-11T12:53:21.447Z,28.63
2023-01-11T12:54:52.173Z,36.38
2023-01-11T12:56:30.227Z,40.92
2023-01-11T12:57:55.396Z,37.72
2023-01-11T12:59:26.167Z,35.47
2023-01-11T13:01:28.351Z,33.27
2023-01-11T13:03:16.910Z,38.33
2023-01-11T13:04:51.229Z,30.20
2023-01-11T13:06:14.308Z,38.22
2023-01-11T13:07:48.511Z,36.65
2023-01-11T13:09:19.260Z,34.42
2023-01-11T13:10:50.799Z,37.53
2023-01-11T13:12:17.175Z,43.47
2023-01-11T13:13:48.922Z,45.88
2023-01-11T13:15:20.516Z,39.83
2023-01-11T13:18:12.040Z,37.47
2023-01-11T13:19:37.411Z,46.45
2023-01-11T13:21:02.590Z,31.92
2023-01-11T13:22:29.701Z,33.55
2023-01-11T13:23:52.540Z,34.55
2023-01-11T13:25:17.410Z,32.10
2023-01-11T13:26:40.063Z,32.63
2023-01-11T13:28:04.934Z,32.83
2023-01-11T13:29:29.063Z,25.67
2023-01-11T13:30:50.272Z,39.08
2023-01-11T13:32:16.129Z,35.65
2023-01-11T13:33:40.385Z,34.55
2023-01-11T13:35:05.060Z,29.50
2023-01-11T13:36:28.256Z,36.63
2023-01-11T13:37:51.468Z,37.50
2023-01-11T13:39:18.105Z,38.25
2023-01-11T13:40:43.499Z,41.65
2023-01-11T13:42:07.895Z,34.53
2023-01-11T13:43:36.015Z,35.65
2023-01-11T13:45:01.596Z,40.88
2023-01-11T13:46:38.750Z,36.28
2023-01-11T13:48:06.152Z,46.38
2023-01-11T13:49:38.995Z,36.58
2023-01-11T13:51:02.647Z,35.08
2023-01-11T13:52:34.388Z,37.22
2023-01-11T13:53:59.762Z,38.20
2023-01-11T13:55:26.880Z,40.38
2023-01-11T13:56:52.525Z,38.67
2023-01-11T13:58:17.644Z,31.23
2023-01-11T13:59:41.398Z,32.33
2023-01-11T14:01:06.100Z,37.58
2023-01-11T14:02:33.272Z,44.67
2023-01-11T14:03:56.890Z,34.45
2023-01-11T14:05:21.037Z,36.53
2023-01-11T14:07:01.065Z,35.45
2023-01-11T14:08:37.835Z,37.53
2023-01-11T14:10:07.636Z,37.08
2023-01-11T14:11:37.049Z,38.70
2023-01-11T14:13:11.487Z,40.33
2023-01-11T14:14:59.000Z,41.80
2023-01-11T14:16:23.105Z,40.80
2023-01-11T14:18:01.279Z,33.22
2023-01-11T14:19:27.594Z,43.22
2023-01-11T14:21:00.180Z,51.58
2023-01-11T14:22:25.476Z,44.97
2023-01-11T14:23:48.912Z,46.92
2023-01-11T14:25:14.840Z,42.83
2023-01-11T14:27:08.479Z,59.45
2023-01-11T14:28:38.448Z,45.40
2023-01-11T14:30:10.184Z,38.45
2023-01-11T14:31:51.942Z,40.88
2023-01-11T14:33:51.566Z,38.80
2023-01-11T14:35:42.375Z,37.88
2023-01-11T14:37:31.377Z,41.63
2023-01-11T14:39:14.511Z,48.22
2023-01-11T14:40:53.805Z,45.42
2023-01-11T14:42:53.287Z,59.03
2023-01-11T14:44:30.905Z,46.92
2023-01-11T14:46:10.358Z,47.97
2023-01-11T14:47:42.417Z,39.60
2023-01-11T14:49:12.917Z,45.88
2023-01-11T14:50:42.027Z,38.53
2023-01-11T14:52:07.347Z,45.15
2023-01-11T14:53:31.281Z,47.92
2023-01-11T14:54:53.450Z,48.00
2023-01-11T14:56:52.582Z,33.05
2023-01-11T14:58:17.941Z,37.17
2023-01-11T14:59:39.238Z,37.33
2023-01-11T15:01:11.170Z,42.22
2023-01-11T15:02:32.255Z,35.22
2023-01-11T15:03:56.711Z,45.13
2023-01-11T15:05:36.629Z,45.58
2023-01-11T15:06:57.504Z,42.78
2023-01-11T15:08:22.506Z,40.05
2023-01-11T15:09:45.181Z,40.47
2023-01-11T15:11:22.039Z,42.45
2023-01-11T15:12:42.645Z,31.65
2023-01-11T15:14:22.017Z,34.55
2023-01-11T15:15:42.534Z,34.38
2023-01-11T15:17:03.129Z,35.22
2023-01-11T15:18:24.867Z,43.80
2023-01-11T15:19:46.218Z,35.22
2023-01-11T15:21:07.068Z,38.83
2023-01-11T15:22:30.938Z,39.72
2023-01-11T15:23:54.398Z,41.83
2023-01-11T15:25:26.564Z,45.97
2023-01-11T15:26:48.691Z,46.83
2023-01-11T15:28:34.837Z,45.08
2023-01-11T15:29:57.307Z,39.53
2023-01-11T15:31:35.669Z,44.38
2023-01-11T15:33:29.551Z,46.60
2023-01-11T15:34:50.145Z,42.45
2023-01-11T15:36:10.913Z,44.25
2023-01-11T15:37:43.951Z,44.38
2023-01-11T15:39:06.740Z,44.72
2023-01-11T15:40:32.160Z,46.25
2023-01-11T15:41:59.128Z,58.20
2023-01-11T15:43:45.818Z,53.95
2023-01-11T15:45:31.920Z,45.55
2023-01-11T15:47:14.997Z,55.78
2023-01-11T15:48:48.530Z,52.00
2023-01-11T15:50:40.053Z,45.47
2023-01-11T15:52:08.951Z,52.22
2023-01-11T15:53:55.009Z,49.75
2023-01-11T15:55:47.325Z,50.00
2023-01-11T15:57:27.533Z,45.13
2023-01-11T15:59:15.940Z,51.92
2023-01-11T16:01:03.230Z,40.90
2023-01-11T16:02:47.582Z,48.03
2023-01-11T16:04:27.426Z,44.30
2023-01-11T16:05:56.591Z,43.00
2023-01-11T16:07:23.098Z,57.97
2023-01-11T16:08:53.322Z,43.42
2023-01-11T16:10:46.348Z,45.33
2023-01-11T16:12:30.529Z,47.85
2023-01-11T16:14:03.403Z,42.92
2023-01-11T16:15:33.538Z,43.75
2023-01-11T16:16:54.309Z,46.90
2023-01-11T16:18:16.821Z,46.17
2023-01-11T16:19:37.304Z,40.38
2023-01-11T16:21:00.382Z,39.33
2023-01-11T16:22:23.017Z,39.38
2023-01-11T16:23:45.117Z,39.70
2023-01-11T16:25:06.104Z,37.03
2023-01-11T16:26:26.835Z,51.78
2023-01-11T16:27:53.121Z,45.50
2023-01-11T16:29:18.369Z,33.13
2023-01-11T16:30:39.027Z,41.58
2023-01-11T16:32:00.972Z,34.47
2023-01-11T16:33:23.441Z,46.00
2023-01-11T16:34:45.403Z,42.80
2023-01-11T16:36:09.778Z,41.45
2023-01-11T16:37:33.450Z,38.05
2023-01-11T16:39:00.762Z,44.20
2023-01-11T16:40:23.174Z,34.60
2023-01-11T16:41:46.344Z,43.13
2023-01-11T16:43:16.781Z,36.70
2023-01-11T16:44:40.182Z,48.72
2023-01-11T16:46:00.741Z,39.95
2023-01-11T16:47:22.153Z,43.95
2023-01-11T16:48:42.597Z,39.70
2023-01-11T16:50:22.890Z,48.47
2023-01-11T16:51:43.605Z,44.50
2023-01-11T16:53:04.687Z,48.78
2023-01-11T16:54:27.374Z,50.10
2023-01-11T16:55:54.101Z,47.35
2023-01-11T16:57:16.504Z,54.78
2023-01-11T16:58:39.472Z,45.47
2023-01-11T17:00:01.749Z,35.58
2023-01-11T17:01:22.119Z,40.08
2023-01-11T17:02:42.827Z,36.08
2023-01-11T17:04:07.222Z,53.78
2023-01-11T17:05:31.021Z,45.03
2023-01-11T17:06:51.234Z,40.65
2023-01-11T17:08:26.154Z,37.97
2023-01-11T17:09:47.029Z,52.22
2023-01-11T17:11:25.547Z,42.78
2023-01-11T17:12:51.554Z,36.95
2023-01-11T17:14:47.939Z,33.30
2023-01-11T17:16:10.493Z,45.47
2023-01-11T17:17:35.071Z,39.03
2023-01-11T17:18:55.628Z,41.70
2023-01-11T17:20:19.704Z,36.95
2023-01-11T17:21:41.258Z,34.78
2023-01-11T17:23:02.962Z,32.10
2023-01-11T17:24:24.575Z,29.27
2023-01-11T17:25:45.482Z,39.08
2023-01-11T17:27:09.213Z,36.90
2023-01-11T17:28:29.715Z,35.78
2023-01-11T17:29:52.260Z,30.85
2023-01-11T17:31:21.123Z,30.75
2023-01-11T17:32:44.264Z,37.00
2023-01-11T17:34:06.056Z,38.17
2023-01-11T17:35:28.086Z,33.67
2023-01-11T17:36:48.811Z,32.58
2023-01-11T17:38:13.418Z,30.17
2023-01-11T17:39:34.835Z,32.90
2023-01-11T17:40:55.755Z,37.58
2023-01-11T17:42:16.622Z,30.57
2023-01-11T17:43:39.936Z,28.73
2023-01-11T17:45:07.433Z,30.13
2023-01-11T17:46:27.731Z,33.50
2023-01-11T17:47:50.972Z,29.30
2023-01-11T17:49:23.391Z,36.22
2023-01-11T17:50:47.357Z,37.22
2023-01-11T17:52:11.755Z,39.30
2023-01-11T17:53:33.733Z,32.33
2023-01-11T17:55:01.224Z,32.10
2023-01-11T17:56:35.445Z,42.00
2023-01-11T17:58:18.068Z,30.08
2023-01-11T17:59:39.430Z,51.65
2023-01-11T18:01:20.286Z,30.40
2023-01-11T18:02:41.233Z,33.38
2023-01-11T18:04:03.933Z,39.05
2023-01-11T18:05:27.611Z,36.17
2023-01-11T18:06:49.179Z,43.85
2023-01-11T18:08:18.160Z,42.97
2023-01-11T18:09:45.100Z,31.98
2023-01-11T18:11:08.913Z,32.78
2023-01-11T18:12:33.157Z,45.50
2023-01-11T18:13:56.280Z,50.88
2023-01-11T18:15:20.985Z,50.33
2023-01-11T18:16:55.806Z,36.33
2023-01-11T18:18:41.106Z,47.88
2023-01-11T18:20:03.109Z,49.67
2023-01-11T18:21:41.255Z,44.88
2023-01-11T18:23:05.447Z,41.65
2023-01-11T18:24:34.815Z,42.03
2023-01-11T18:26:24.363Z,44.70
2023-01-11T18:27:45.702Z,40.38
2023-01-11T18:29:14.143Z,44.92
2023-01-11T18:30:40.060Z,41.80
2023-01-11T18:32:02.320Z,42.45
2023-01-11T18:33:24.802Z,37.67
2023-01-11T18:34:48.745Z,48.15
2023-01-11T18:36:19.506Z,56.20